Heer, Netherlands
Current Conditions -  °F | °C
As of 12:55 PM on Friday 31 Oct 2014 (Local Time) from EHBK Reporting Station
Clear Clear  
Wind Chill: 66°   Ceiling: Unl
Heat Index: 66°   Visibility: 6mi
Dew Point: 55°   Wind: 9mph
Humidity: 68%   Direction: 200°SSW
Pressure: 30.18"   Gusts: NA
Location:  50.84°N, 5.73°E
Report Text: EHBK 311155Z AUTO 20008KT 9999 NSC 19/13 Q1022 NOSIG
Loading
Personal Weather Stations






























Interactive Weather Map
Tropical Storm Tracking
New forecast layout! Learn more

10-Day Weather Forecast

Advertisements
Track Severe Weather on mobile